sensor_id;sensor_type;location;lat;lon;timestamp;P1;durP1;ratioP1;P2;durP2;ratioP2
41815;SDS011;27814;53.452;-6.180;2022-11-18T00:01:28;11.70;;;7.03;;
41815;SDS011;27814;53.452;-6.180;2022-11-18T00:03:58;10.20;;;7.00;;
41815;SDS011;27814;53.452;-6.180;2022-11-18T00:06:27;11.75;;;6.82;;
41815;SDS011;27814;53.452;-6.180;2022-11-18T00:08:56;10.02;;;6.78;;
41815;SDS011;27814;53.452;-6.180;2022-11-18T00:11:26;12.03;;;7.13;;
41815;SDS011;27814;53.452;-6.180;2022-11-18T00:14:13;10.77;;;6.47;;
41815;SDS011;27814;53.452;-6.180;2022-11-18T00:16:47;10.33;;;6.40;;
41815;SDS011;27814;53.452;-6.180;2022-11-18T00:19:18;11.38;;;6.88;;
41815;SDS011;27814;53.452;-6.180;2022-11-18T00:21:48;9.55;;;6.00;;
41815;SDS011;27814;53.452;-6.180;2022-11-18T00:24:17;10.82;;;6.28;;
41815;SDS011;27814;53.452;-6.180;2022-11-18T00:26:45;10.40;;;6.35;;
41815;SDS011;27814;53.452;-6.180;2022-11-18T00:29:14;10.20;;;5.07;;
41815;SDS011;27814;53.452;-6.180;2022-11-18T00:31:43;10.02;;;4.63;;
41815;SDS011;27814;53.452;-6.180;2022-11-18T00:34:12;8.95;;;4.55;;
41815;SDS011;27814;53.452;-6.180;2022-11-18T00:36:43;11.45;;;4.75;;
41815;SDS011;27814;53.452;-6.180;2022-11-18T00:39:13;8.40;;;4.50;;
41815;SDS011;27814;53.452;-6.180;2022-11-18T00:41:43;6.85;;;3.95;;
41815;SDS011;27814;53.452;-6.180;2022-11-18T00:44:29;9.57;;;4.20;;
41815;SDS011;27814;53.452;-6.180;2022-11-18T00:46:57;7.88;;;4.25;;
41815;SDS011;27814;53.452;-6.180;2022-11-18T00:49:26;4.53;;;3.42;;
41815;SDS011;27814;53.452;-6.180;2022-11-18T00:51:56;8.68;;;4.43;;
41815;SDS011;27814;53.452;-6.180;2022-11-18T00:54:24;7.60;;;3.83;;
41815;SDS011;27814;53.452;-6.180;2022-11-18T00:56:53;9.10;;;3.78;;
41815;SDS011;27814;53.452;-6.180;2022-11-18T00:59:21;7.07;;;3.95;;
41815;SDS011;27814;53.452;-6.180;2022-11-18T01:01:49;8.73;;;4.03;;
41815;SDS011;27814;53.452;-6.180;2022-11-18T01:04:18;8.77;;;4.03;;
41815;SDS011;27814;53.452;-6.180;2022-11-18T01:06:46;7.53;;;3.90;;
41815;SDS011;27814;53.452;-6.180;2022-11-18T01:09:16;8.20;;;3.65;;
41815;SDS011;27814;53.452;-6.180;2022-11-18T01:11:44;7.20;;;4.03;;
41815;SDS011;27814;53.452;-6.180;2022-11-18T01:14:30;5.82;;;3.83;;
41815;SDS011;27814;53.452;-6.180;2022-11-18T01:16:59;8.07;;;3.63;;
41815;SDS011;27814;53.452;-6.180;2022-11-18T01:19:27;7.22;;;3.70;;
41815;SDS011;27814;53.452;-6.180;2022-11-18T01:21:55;7.32;;;3.70;;
41815;SDS011;27814;53.452;-6.180;2022-11-18T01:24:30;9.30;;;3.67;;
41815;SDS011;27814;53.452;-6.180;2022-11-18T01:26:59;7.57;;;3.50;;
41815;SDS011;27814;53.452;-6.180;2022-11-18T01:29:27;6.80;;;3.38;;
41815;SDS011;27814;53.452;-6.180;2022-11-18T01:31:56;5.45;;;3.45;;
41815;SDS011;27814;53.452;-6.180;2022-11-18T01:34:44;5.57;;;3.25;;
41815;SDS011;27814;53.452;-6.180;2022-11-18T01:37:12;6.43;;;3.22;;
41815;SDS011;27814;53.452;-6.180;2022-11-18T01:39:42;7.53;;;3.25;;
41815;SDS011;27814;53.452;-6.180;2022-11-18T01:42:12;5.22;;;3.28;;
41815;SDS011;27814;53.452;-6.180;2022-11-18T01:47:43;7.23;;;3.90;;
41815;SDS011;27814;53.452;-6.180;2022-11-18T01:50:15;5.20;;;3.10;;
41815;SDS011;27814;53.452;-6.180;2022-11-18T01:52:46;7.55;;;3.10;;
41815;SDS011;27814;53.452;-6.180;2022-11-18T01:55:20;4.77;;;3.07;;
41815;SDS011;27814;53.452;-6.180;2022-11-18T01:57:52;4.13;;;2.60;;
41815;SDS011;27814;53.452;-6.180;2022-11-18T02:00:27;4.50;;;2.40;;
41815;SDS011;27814;53.452;-6.180;2022-11-18T02:02:56;6.00;;;2.50;;
41815;SDS011;27814;53.452;-6.180;2022-11-18T02:05:26;17.08;;;3.50;;
41815;SDS011;27814;53.452;-6.180;2022-11-18T02:07:55;3.90;;;2.67;;
41815;SDS011;27814;53.452;-6.180;2022-11-18T02:10:26;4.90;;;3.28;;
41815;SDS011;27814;53.452;-6.180;2022-11-18T02:12:54;5.47;;;3.17;;
41815;SDS011;27814;53.452;-6.180;2022-11-18T02:15:25;5.10;;;3.22;;
41815;SDS011;27814;53.452;-6.180;2022-11-18T02:18:18;4.70;;;3.13;;
41815;SDS011;27814;53.452;-6.180;2022-11-18T02:20:54;4.82;;;3.45;;
41815;SDS011;27814;53.452;-6.180;2022-11-18T02:27:13;5.63;;;3.47;;
41815;SDS011;27814;53.452;-6.180;2022-11-18T02:29:57;4.75;;;3.42;;
41815;SDS011;27814;53.452;-6.180;2022-11-18T02:32:29;6.03;;;3.30;;
41815;SDS011;27814;53.452;-6.180;2022-11-18T02:35:01;5.73;;;3.23;;
41815;SDS011;27814;53.452;-6.180;2022-11-18T02:37:37;6.13;;;3.45;;
41815;SDS011;27814;53.452;-6.180;2022-11-18T02:40:12;4.57;;;3.30;;
41815;SDS011;27814;53.452;-6.180;2022-11-18T02:42:47;8.27;;;3.70;;
41815;SDS011;27814;53.452;-6.180;2022-11-18T02:45:22;5.20;;;3.88;;
41815;SDS011;27814;53.452;-6.180;2022-11-18T02:47:53;5.60;;;3.50;;
41815;SDS011;27814;53.452;-6.180;2022-11-18T02:50:24;5.33;;;3.63;;
41815;SDS011;27814;53.452;-6.180;2022-11-18T02:52:56;6.22;;;4.25;;
41815;SDS011;27814;53.452;-6.180;2022-11-18T02:55:27;6.40;;;3.53;;
41815;SDS011;27814;53.452;-6.180;2022-11-18T02:57:58;4.65;;;3.60;;
41815;SDS011;27814;53.452;-6.180;2022-11-18T03:00:30;4.90;;;3.45;;
41815;SDS011;27814;53.452;-6.180;2022-11-18T03:02:59;5.70;;;3.70;;
41815;SDS011;27814;53.452;-6.180;2022-11-18T03:05:52;4.07;;;2.90;;
41815;SDS011;27814;53.452;-6.180;2022-11-18T03:08:31;4.28;;;2.95;;
41815;SDS011;27814;53.452;-6.180;2022-11-18T03:11:07;4.28;;;2.80;;
41815;SDS011;27814;53.452;-6.180;2022-11-18T03:13:40;3.95;;;2.83;;
41815;SDS011;27814;53.452;-6.180;2022-11-18T03:16:20;3.40;;;2.30;;
41815;SDS011;27814;53.452;-6.180;2022-11-18T03:18:54;4.43;;;2.88;;
41815;SDS011;27814;53.452;-6.180;2022-11-18T03:21:30;3.72;;;2.30;;
41815;SDS011;27814;53.452;-6.180;2022-11-18T03:24:04;4.38;;;2.30;;
41815;SDS011;27814;53.452;-6.180;2022-11-18T03:26:38;3.35;;;2.40;;
41815;SDS011;27814;53.452;-6.180;2022-11-18T03:29:12;3.00;;;2.10;;
41815;SDS011;27814;53.452;-6.180;2022-11-18T03:31:46;3.63;;;2.08;;
41815;SDS011;27814;53.452;-6.180;2022-11-18T03:34:18;3.45;;;2.00;;
41815;SDS011;27814;53.452;-6.180;2022-11-18T03:36:52;2.70;;;1.88;;
41815;SDS011;27814;53.452;-6.180;2022-11-18T03:39:26;3.13;;;2.10;;
41815;SDS011;27814;53.452;-6.180;2022-11-18T03:41:59;2.75;;;1.70;;
41815;SDS011;27814;53.452;-6.180;2022-11-18T03:44:33;4.93;;;1.67;;
41815;SDS011;27814;53.452;-6.180;2022-11-18T03:47:07;2.65;;;1.50;;
41815;SDS011;27814;53.452;-6.180;2022-11-18T03:49:40;2.50;;;1.20;;
41815;SDS011;27814;53.452;-6.180;2022-11-18T03:52:12;2.05;;;1.15;;
41815;SDS011;27814;53.452;-6.180;2022-11-18T03:54:45;2.78;;;1.20;;
41815;SDS011;27814;53.452;-6.180;2022-11-18T03:57:18;1.98;;;1.17;;
41815;SDS011;27814;53.452;-6.180;2022-11-18T03:59:51;1.73;;;0.93;;
41815;SDS011;27814;53.452;-6.180;2022-11-18T04:02:27;1.45;;;0.77;;
41815;SDS011;27814;53.452;-6.180;2022-11-18T04:04:57;2.25;;;0.88;;
41815;SDS011;27814;53.452;-6.180;2022-11-18T04:07:28;2.10;;;0.63;;
41815;SDS011;27814;53.452;-6.180;2022-11-18T04:10:02;2.22;;;0.90;;
41815;SDS011;27814;53.452;-6.180;2022-11-18T04:12:37;2.95;;;0.60;;
41815;SDS011;27814;53.452;-6.180;2022-11-18T04:15:10;3.30;;;0.70;;
41815;SDS011;27814;53.452;-6.180;2022-11-18T04:17:41;3.58;;;0.50;;
41815;SDS011;27814;53.452;-6.180;2022-11-18T04:20:11;2.35;;;0.65;;
41815;SDS011;27814;53.452;-6.180;2022-11-18T04:22:41;2.07;;;0.40;;
41815;SDS011;27814;53.452;-6.180;2022-11-18T04:25:10;3.53;;;0.60;;
41815;SDS011;27814;53.452;-6.180;2022-11-18T04:27:39;3.30;;;0.40;;
41815;SDS011;27814;53.452;-6.180;2022-11-18T04:30:07;1.20;;;0.60;;
41815;SDS011;27814;53.452;-6.180;2022-11-18T04:32:37;2.28;;;0.50;;
41815;SDS011;27814;53.452;-6.180;2022-11-18T04:35:07;1.77;;;0.40;;
41815;SDS011;27814;53.452;-6.180;2022-11-18T04:37:36;3.17;;;0.70;;
41815;SDS011;27814;53.452;-6.180;2022-11-18T04:40:05;3.53;;;0.50;;
41815;SDS011;27814;53.452;-6.180;2022-11-18T04:42:34;3.15;;;0.47;;
41815;SDS011;27814;53.452;-6.180;2022-11-18T04:45:03;1.48;;;0.35;;
41815;SDS011;27814;53.452;-6.180;2022-11-18T04:47:32;3.33;;;0.50;;
41815;SDS011;27814;53.452;-6.180;2022-11-18T04:50:01;3.72;;;0.50;;
41815;SDS011;27814;53.452;-6.180;2022-11-18T04:52:31;1.75;;;0.30;;
41815;SDS011;27814;53.452;-6.180;2022-11-18T04:54:59;1.95;;;0.30;;
41815;SDS011;27814;53.452;-6.180;2022-11-18T04:57:27;1.87;;;0.47;;
41815;SDS011;27814;53.452;-6.180;2022-11-18T04:59:56;3.42;;;0.63;;
41815;SDS011;27814;53.452;-6.180;2022-11-18T05:02:24;4.50;;;0.60;;
41815;SDS011;27814;53.452;-6.180;2022-11-18T05:04:53;4.43;;;0.70;;
41815;SDS011;27814;53.452;-6.180;2022-11-18T05:07:21;4.13;;;0.70;;
41815;SDS011;27814;53.452;-6.180;2022-11-18T05:09:51;4.22;;;0.75;;
41815;SDS011;27814;53.452;-6.180;2022-11-18T05:12:19;4.20;;;0.65;;
41815;SDS011;27814;53.452;-6.180;2022-11-18T05:15:06;3.38;;;0.70;;
41815;SDS011;27814;53.452;-6.180;2022-11-18T05:17:34;6.03;;;0.73;;
41815;SDS011;27814;53.452;-6.180;2022-11-18T05:20:03;3.83;;;0.75;;
41815;SDS011;27814;53.452;-6.180;2022-11-18T05:22:32;4.28;;;0.98;;
41815;SDS011;27814;53.452;-6.180;2022-11-18T05:25:01;6.53;;;0.60;;
41815;SDS011;27814;53.452;-6.180;2022-11-18T05:27:30;3.80;;;0.70;;
41815;SDS011;27814;53.452;-6.180;2022-11-18T05:29:58;6.40;;;0.98;;
41815;SDS011;27814;53.452;-6.180;2022-11-18T05:32:26;5.30;;;1.02;;
41815;SDS011;27814;53.452;-6.180;2022-11-18T05:34:55;4.05;;;0.90;;
41815;SDS011;27814;53.452;-6.180;2022-11-18T05:37:23;5.60;;;1.00;;
41815;SDS011;27814;53.452;-6.180;2022-11-18T05:39:51;5.60;;;0.90;;
41815;SDS011;27814;53.452;-6.180;2022-11-18T05:42:21;4.80;;;1.20;;
41815;SDS011;27814;53.452;-6.180;2022-11-18T05:45:07;5.72;;;0.90;;
41815;SDS011;27814;53.452;-6.180;2022-11-18T05:47:35;12.25;;;1.25;;
41815;SDS011;27814;53.452;-6.180;2022-11-18T05:50:24;5.75;;;0.98;;
41815;SDS011;27814;53.452;-6.180;2022-11-18T05:52:53;5.83;;;1.03;;
41815;SDS011;27814;53.452;-6.180;2022-11-18T05:55:21;5.93;;;1.30;;
41815;SDS011;27814;53.452;-6.180;2022-11-18T05:57:53;6.03;;;0.90;;
41815;SDS011;27814;53.452;-6.180;2022-11-18T06:00:22;6.88;;;1.00;;
41815;SDS011;27814;53.452;-6.180;2022-11-18T06:02:50;8.27;;;1.33;;
41815;SDS011;27814;53.452;-6.180;2022-11-18T06:05:21;7.28;;;1.13;;
41815;SDS011;27814;53.452;-6.180;2022-11-18T06:07:52;5.95;;;1.00;;
41815;SDS011;27814;53.452;-6.180;2022-11-18T06:10:24;6.88;;;0.98;;
41815;SDS011;27814;53.452;-6.180;2022-11-18T06:12:57;7.28;;;0.95;;
41815;SDS011;27814;53.452;-6.180;2022-11-18T06:15:30;5.70;;;1.13;;
41815;SDS011;27814;53.452;-6.180;2022-11-18T06:18:02;5.63;;;0.95;;
41815;SDS011;27814;53.452;-6.180;2022-11-18T06:20:34;5.32;;;1.10;;
41815;SDS011;27814;53.452;-6.180;2022-11-18T06:23:05;8.52;;;1.75;;
41815;SDS011;27814;53.452;-6.180;2022-11-18T06:25:34;7.82;;;1.55;;
41815;SDS011;27814;53.452;-6.180;2022-11-18T06:28:06;5.07;;;0.88;;
41815;SDS011;27814;53.452;-6.180;2022-11-18T06:30:38;6.05;;;0.93;;
41815;SDS011;27814;53.452;-6.180;2022-11-18T06:33:06;7.63;;;0.98;;
41815;SDS011;27814;53.452;-6.180;2022-11-18T06:35:35;10.27;;;1.30;;
41815;SDS011;27814;53.452;-6.180;2022-11-18T06:38:03;4.68;;;0.75;;
41815;SDS011;27814;53.452;-6.180;2022-11-18T06:40:31;9.35;;;1.10;;
41815;SDS011;27814;53.452;-6.180;2022-11-18T06:43:03;3.35;;;0.70;;
41815;SDS011;27814;53.452;-6.180;2022-11-18T06:45:56;4.57;;;1.02;;
41815;SDS011;27814;53.452;-6.180;2022-11-18T06:48:42;6.97;;;1.10;;
41815;SDS011;27814;53.452;-6.180;2022-11-18T06:51:11;6.93;;;0.93;;
41815;SDS011;27814;53.452;-6.180;2022-11-18T06:53:40;7.30;;;1.17;;
41815;SDS011;27814;53.452;-6.180;2022-11-18T06:56:09;7.68;;;1.02;;
41815;SDS011;27814;53.452;-6.180;2022-11-18T06:58:40;6.53;;;0.95;;
41815;SDS011;27814;53.452;-6.180;2022-11-18T07:01:09;4.00;;;0.80;;
41815;SDS011;27814;53.452;-6.180;2022-11-18T07:03:39;5.90;;;0.95;;
41815;SDS011;27814;53.452;-6.180;2022-11-18T07:06:09;7.37;;;1.10;;
41815;SDS011;27814;53.452;-6.180;2022-11-18T07:08:38;6.85;;;1.20;;
41815;SDS011;27814;53.452;-6.180;2022-11-18T07:11:09;8.18;;;1.15;;
41815;SDS011;27814;53.452;-6.180;2022-11-18T07:13:38;12.10;;;1.20;;
41815;SDS011;27814;53.452;-6.180;2022-11-18T07:16:10;5.20;;;1.10;;
41815;SDS011;27814;53.452;-6.180;2022-11-18T07:18:39;5.80;;;0.90;;
41815;SDS011;27814;53.452;-6.180;2022-11-18T07:21:10;5.05;;;1.15;;
41815;SDS011;27814;53.452;-6.180;2022-11-18T07:23:39;6.35;;;1.33;;
41815;SDS011;27814;53.452;-6.180;2022-11-18T07:26:08;5.85;;;1.02;;
41815;SDS011;27814;53.452;-6.180;2022-11-18T07:28:36;9.33;;;1.10;;
41815;SDS011;27814;53.452;-6.180;2022-11-18T07:31:07;9.60;;;1.50;;
41815;SDS011;27814;53.452;-6.180;2022-11-18T07:33:36;10.20;;;1.42;;
41815;SDS011;27814;53.452;-6.180;2022-11-18T07:36:07;4.78;;;1.33;;
41815;SDS011;27814;53.452;-6.180;2022-11-18T07:38:36;6.57;;;1.17;;
41815;SDS011;27814;53.452;-6.180;2022-11-18T07:41:05;9.07;;;1.60;;
41815;SDS011;27814;53.452;-6.180;2022-11-18T07:43:36;6.75;;;1.42;;
41815;SDS011;27814;53.452;-6.180;2022-11-18T07:46:10;12.27;;;1.40;;
41815;SDS011;27814;53.452;-6.180;2022-11-18T07:48:39;7.00;;;1.52;;
41815;SDS011;27814;53.452;-6.180;2022-11-18T07:51:08;5.35;;;1.00;;
41815;SDS011;27814;53.452;-6.180;2022-11-18T07:53:36;8.45;;;1.20;;
41815;SDS011;27814;53.452;-6.180;2022-11-18T07:56:05;5.45;;;0.90;;
41815;SDS011;27814;53.452;-6.180;2022-11-18T07:58:34;7.65;;;1.40;;
41815;SDS011;27814;53.452;-6.180;2022-11-18T08:01:06;9.15;;;1.15;;
41815;SDS011;27814;53.452;-6.180;2022-11-18T08:03:37;5.97;;;1.05;;
41815;SDS011;27814;53.452;-6.180;2022-11-18T08:06:07;4.40;;;1.10;;
41815;SDS011;27814;53.452;-6.180;2022-11-18T08:08:36;6.53;;;0.90;;
41815;SDS011;27814;53.452;-6.180;2022-11-18T08:11:06;6.78;;;1.38;;
41815;SDS011;27814;53.452;-6.180;2022-11-18T08:13:36;6.67;;;1.20;;
41815;SDS011;27814;53.452;-6.180;2022-11-18T08:16:05;5.38;;;1.73;;
41815;SDS011;27814;53.452;-6.180;2022-11-18T08:18:41;8.57;;;1.60;;
41815;SDS011;27814;53.452;-6.180;2022-11-18T08:21:09;7.57;;;0.70;;
41815;SDS011;27814;53.452;-6.180;2022-11-18T08:23:38;5.18;;;0.80;;
41815;SDS011;27814;53.452;-6.180;2022-11-18T08:26:08;5.72;;;0.90;;
41815;SDS011;27814;53.452;-6.180;2022-11-18T08:28:39;9.00;;;1.17;;
41815;SDS011;27814;53.452;-6.180;2022-11-18T08:31:08;10.65;;;0.98;;
41815;SDS011;27814;53.452;-6.180;2022-11-18T08:33:37;5.63;;;1.10;;
41815;SDS011;27814;53.452;-6.180;2022-11-18T08:36:08;4.15;;;0.80;;
41815;SDS011;27814;53.452;-6.180;2022-11-18T08:38:39;7.00;;;1.00;;
41815;SDS011;27814;53.452;-6.180;2022-11-18T08:41:09;7.13;;;1.10;;
41815;SDS011;27814;53.452;-6.180;2022-11-18T08:43:39;5.05;;;1.13;;
41815;SDS011;27814;53.452;-6.180;2022-11-18T08:46:07;5.93;;;1.08;;
41815;SDS011;27814;53.452;-6.180;2022-11-18T08:48:36;5.25;;;0.90;;
41815;SDS011;27814;53.452;-6.180;2022-11-18T08:51:04;5.00;;;0.60;;
41815;SDS011;27814;53.452;-6.180;2022-11-18T08:53:34;8.20;;;1.00;;
41815;SDS011;27814;53.452;-6.180;2022-11-18T08:56:03;5.55;;;0.90;;
41815;SDS011;27814;53.452;-6.180;2022-11-18T08:58:32;9.63;;;1.30;;
41815;SDS011;27814;53.452;-6.180;2022-11-18T09:01:03;6.30;;;1.38;;
41815;SDS011;27814;53.452;-6.180;2022-11-18T09:03:32;8.73;;;0.90;;
41815;SDS011;27814;53.452;-6.180;2022-11-18T09:06:04;6.68;;;1.20;;
41815;SDS011;27814;53.452;-6.180;2022-11-18T09:08:34;7.68;;;1.40;;
41815;SDS011;27814;53.452;-6.180;2022-11-18T09:11:06;4.85;;;1.00;;
41815;SDS011;27814;53.452;-6.180;2022-11-18T09:13:36;7.18;;;1.55;;
41815;SDS011;27814;53.452;-6.180;2022-11-18T09:16:25;7.80;;;1.00;;
41815;SDS011;27814;53.452;-6.180;2022-11-18T09:18:54;4.65;;;0.90;;
41815;SDS011;27814;53.452;-6.180;2022-11-18T09:21:38;8.85;;;1.48;;
41815;SDS011;27814;53.452;-6.180;2022-11-18T09:24:08;3.45;;;0.80;;
41815;SDS011;27814;53.452;-6.180;2022-11-18T09:26:37;7.67;;;1.00;;
41815;SDS011;27814;53.452;-6.180;2022-11-18T09:29:06;5.53;;;0.93;;
41815;SDS011;27814;53.452;-6.180;2022-11-18T09:31:36;2.90;;;0.77;;
41815;SDS011;27814;53.452;-6.180;2022-11-18T09:34:05;5.00;;;1.13;;
41815;SDS011;27814;53.452;-6.180;2022-11-18T09:36:35;5.68;;;0.85;;
41815;SDS011;27814;53.452;-6.180;2022-11-18T09:39:04;5.88;;;1.02;;
41815;SDS011;27814;53.452;-6.180;2022-11-18T09:41:40;4.70;;;0.80;;
41815;SDS011;27814;53.452;-6.180;2022-11-18T09:44:17;6.65;;;1.10;;
41815;SDS011;27814;53.452;-6.180;2022-11-18T09:46:58;4.45;;;0.80;;
41815;SDS011;27814;53.452;-6.180;2022-11-18T09:49:35;5.45;;;1.10;;
41815;SDS011;27814;53.452;-6.180;2022-11-18T09:52:09;5.75;;;1.27;;
41815;SDS011;27814;53.452;-6.180;2022-11-18T09:54:42;4.90;;;0.95;;
41815;SDS011;27814;53.452;-6.180;2022-11-18T09:57:14;8.15;;;0.90;;
41815;SDS011;27814;53.452;-6.180;2022-11-18T09:59:44;5.95;;;1.10;;
41815;SDS011;27814;53.452;-6.180;2022-11-18T10:02:25;5.43;;;1.20;;
41815;SDS011;27814;53.452;-6.180;2022-11-18T10:04:57;8.57;;;1.10;;
41815;SDS011;27814;53.452;-6.180;2022-11-18T10:07:42;12.90;;;1.70;;
41815;SDS011;27814;53.452;-6.180;2022-11-18T10:10:22;6.03;;;1.00;;
41815;SDS011;27814;53.452;-6.180;2022-11-18T10:12:59;6.38;;;1.10;;
41815;SDS011;27814;53.452;-6.180;2022-11-18T10:15:33;5.40;;;0.98;;
41815;SDS011;27814;53.452;-6.180;2022-11-18T10:18:11;4.20;;;0.80;;
41815;SDS011;27814;53.452;-6.180;2022-11-18T10:21:11;5.60;;;0.93;;
41815;SDS011;27814;53.452;-6.180;2022-11-18T10:23:50;5.32;;;0.90;;
41815;SDS011;27814;53.452;-6.180;2022-11-18T10:26:32;8.38;;;1.23;;
41815;SDS011;27814;53.452;-6.180;2022-11-18T10:29:03;7.55;;;1.10;;
41815;SDS011;27814;53.452;-6.180;2022-11-18T10:31:36;5.18;;;1.00;;
41815;SDS011;27814;53.452;-6.180;2022-11-18T10:34:09;5.00;;;0.93;;
41815;SDS011;27814;53.452;-6.180;2022-11-18T10:36:40;5.32;;;1.60;;
41815;SDS011;27814;53.452;-6.180;2022-11-18T10:39:14;6.30;;;1.10;;
41815;SDS011;27814;53.452;-6.180;2022-11-18T10:41:44;5.88;;;1.50;;
41815;SDS011;27814;53.452;-6.180;2022-11-18T10:44:28;6.80;;;1.00;;
41815;SDS011;27814;53.452;-6.180;2022-11-18T10:49:52;6.60;;;0.93;;
41815;SDS011;27814;53.452;-6.180;2022-11-18T10:52:22;5.57;;;0.90;;
41815;SDS011;27814;53.452;-6.180;2022-11-18T10:55:05;4.32;;;0.80;;
41815;SDS011;27814;53.452;-6.180;2022-11-18T10:57:38;5.20;;;1.00;;
41815;SDS011;27814;53.452;-6.180;2022-11-18T11:09:02;4.95;;;1.23;;
41815;SDS011;27814;53.452;-6.180;2022-11-18T11:11:33;4.40;;;0.83;;
41815;SDS011;27814;53.452;-6.180;2022-11-18T11:14:05;3.53;;;0.85;;
41815;SDS011;27814;53.452;-6.180;2022-11-18T11:16:44;5.78;;;0.90;;
41815;SDS011;27814;53.452;-6.180;2022-11-18T11:19:17;5.18;;;1.20;;
41815;SDS011;27814;53.452;-6.180;2022-11-18T11:21:50;7.05;;;1.60;;
41815;SDS011;27814;53.452;-6.180;2022-11-18T11:24:18;6.85;;;2.30;;
41815;SDS011;27814;53.452;-6.180;2022-11-18T11:26:53;5.88;;;1.55;;
41815;SDS011;27814;53.452;-6.180;2022-11-18T11:29:55;4.18;;;1.33;;
41815;SDS011;27814;53.452;-6.180;2022-11-18T11:32:48;5.55;;;1.70;;
41815;SDS011;27814;53.452;-6.180;2022-11-18T11:35:28;4.93;;;1.30;;
41815;SDS011;27814;53.452;-6.180;2022-11-18T11:38:03;5.65;;;1.15;;
41815;SDS011;27814;53.452;-6.180;2022-11-18T11:40:43;5.80;;;1.27;;
41815;SDS011;27814;53.452;-6.180;2022-11-18T11:43:24;6.83;;;1.20;;
41815;SDS011;27814;53.452;-6.180;2022-11-18T11:46:20;6.45;;;1.17;;
41815;SDS011;27814;53.452;-6.180;2022-11-18T11:49:09;8.00;;;1.05;;
41815;SDS011;27814;53.452;-6.180;2022-11-18T11:51:46;4.65;;;1.17;;
41815;SDS011;27814;53.452;-6.180;2022-11-18T11:54:22;5.22;;;1.20;;
41815;SDS011;27814;53.452;-6.180;2022-11-18T11:57:01;4.22;;;0.80;;
41815;SDS011;27814;53.452;-6.180;2022-11-18T11:59:35;4.53;;;0.90;;
41815;SDS011;27814;53.452;-6.180;2022-11-18T12:05:10;3.45;;;0.77;;
41815;SDS011;27814;53.452;-6.180;2022-11-18T12:07:49;6.45;;;1.08;;
41815;SDS011;27814;53.452;-6.180;2022-11-18T12:10:26;3.10;;;0.60;;
41815;SDS011;27814;53.452;-6.180;2022-11-18T12:13:02;6.85;;;1.08;;
41815;SDS011;27814;53.452;-6.180;2022-11-18T12:15:43;4.32;;;0.90;;
41815;SDS011;27814;53.452;-6.180;2022-11-18T12:18:19;7.43;;;1.17;;
41815;SDS011;27814;53.452;-6.180;2022-11-18T12:20:53;3.35;;;0.80;;
41815;SDS011;27814;53.452;-6.180;2022-11-18T12:23:23;5.88;;;1.00;;
41815;SDS011;27814;53.452;-6.180;2022-11-18T12:25:54;4.82;;;0.93;;
41815;SDS011;27814;53.452;-6.180;2022-11-18T12:28:29;3.72;;;0.80;;
41815;SDS011;27814;53.452;-6.180;2022-11-18T12:34:03;7.78;;;1.00;;
41815;SDS011;27814;53.452;-6.180;2022-11-18T12:36:45;6.18;;;1.00;;
41815;SDS011;27814;53.452;-6.180;2022-11-18T12:45:45;1.95;;;0.77;;
41815;SDS011;27814;53.452;-6.180;2022-11-18T12:54:29;4.90;;;1.40;;
41815;SDS011;27814;53.452;-6.180;2022-11-18T12:57:01;3.97;;;0.93;;
41815;SDS011;27814;53.452;-6.180;2022-11-18T12:59:31;4.57;;;0.80;;
41815;SDS011;27814;53.452;-6.180;2022-11-18T13:02:05;5.57;;;1.10;;
41815;SDS011;27814;53.452;-6.180;2022-11-18T13:05:06;3.97;;;0.70;;
41815;SDS011;27814;53.452;-6.180;2022-11-18T13:07:42;6.13;;;1.13;;
41815;SDS011;27814;53.452;-6.180;2022-11-18T13:10:32;5.17;;;0.90;;
41815;SDS011;27814;53.452;-6.180;2022-11-18T13:13:04;3.83;;;0.75;;
41815;SDS011;27814;53.452;-6.180;2022-11-18T13:15:40;4.18;;;0.93;;
41815;SDS011;27814;53.452;-6.180;2022-11-18T13:18:26;3.63;;;0.98;;
41815;SDS011;27814;53.452;-6.180;2022-11-18T13:20:55;6.30;;;1.08;;
41815;SDS011;27814;53.452;-6.180;2022-11-18T13:23:45;5.25;;;0.75;;
41815;SDS011;27814;53.452;-6.180;2022-11-18T13:26:28;4.15;;;0.80;;
41815;SDS011;27814;53.452;-6.180;2022-11-18T13:29:02;5.07;;;1.00;;
41815;SDS011;27814;53.452;-6.180;2022-11-18T13:31:42;2.40;;;0.75;;
41815;SDS011;27814;53.452;-6.180;2022-11-18T13:34:17;5.72;;;1.00;;
41815;SDS011;27814;53.452;-6.180;2022-11-18T13:36:48;4.78;;;0.80;;
41815;SDS011;27814;53.452;-6.180;2022-11-18T13:39:20;3.22;;;0.80;;
41815;SDS011;27814;53.452;-6.180;2022-11-18T13:42:01;4.22;;;0.90;;
41815;SDS011;27814;53.452;-6.180;2022-11-18T13:44:31;4.75;;;1.08;;
41815;SDS011;27814;53.452;-6.180;2022-11-18T13:47:03;5.50;;;0.90;;
41815;SDS011;27814;53.452;-6.180;2022-11-18T13:49:48;5.97;;;0.95;;
41815;SDS011;27814;53.452;-6.180;2022-11-18T13:52:22;5.67;;;0.93;;
41815;SDS011;27814;53.452;-6.180;2022-11-18T13:54:54;3.38;;;0.80;;
41815;SDS011;27814;53.452;-6.180;2022-11-18T13:57:27;6.13;;;1.42;;
41815;SDS011;27814;53.452;-6.180;2022-11-18T13:59:58;5.13;;;1.27;;
41815;SDS011;27814;53.452;-6.180;2022-11-18T14:02:36;5.72;;;1.05;;
41815;SDS011;27814;53.452;-6.180;2022-11-18T14:05:15;4.38;;;1.00;;
41815;SDS011;27814;53.452;-6.180;2022-11-18T14:08:00;6.22;;;1.08;;
41815;SDS011;27814;53.452;-6.180;2022-11-18T14:10:33;4.40;;;0.93;;
41815;SDS011;27814;53.452;-6.180;2022-11-18T14:13:17;6.85;;;1.20;;
41815;SDS011;27814;53.452;-6.180;2022-11-18T14:15:49;4.90;;;1.00;;
41815;SDS011;27814;53.452;-6.180;2022-11-18T14:18:20;3.70;;;1.00;;
41815;SDS011;27814;53.452;-6.180;2022-11-18T14:20:54;3.67;;;1.02;;
41815;SDS011;27814;53.452;-6.180;2022-11-18T14:23:28;5.65;;;1.30;;
41815;SDS011;27814;53.452;-6.180;2022-11-18T14:25:58;5.03;;;1.15;;
41815;SDS011;27814;53.452;-6.180;2022-11-18T14:28:31;5.40;;;0.80;;
41815;SDS011;27814;53.452;-6.180;2022-11-18T14:31:05;4.47;;;0.95;;
41815;SDS011;27814;53.452;-6.180;2022-11-18T14:34:02;6.25;;;1.10;;
41815;SDS011;27814;53.452;-6.180;2022-11-18T14:36:44;6.38;;;1.05;;
41815;SDS011;27814;53.452;-6.180;2022-11-18T14:39:18;7.35;;;1.20;;
41815;SDS011;27814;53.452;-6.180;2022-11-18T14:41:52;4.07;;;0.80;;
41815;SDS011;27814;53.452;-6.180;2022-11-18T14:44:23;6.25;;;1.20;;
41815;SDS011;27814;53.452;-6.180;2022-11-18T14:46:53;5.77;;;1.13;;
41815;SDS011;27814;53.452;-6.180;2022-11-18T14:49:24;3.38;;;0.82;;
41815;SDS011;27814;53.452;-6.180;2022-11-18T14:51:53;5.57;;;1.10;;
41815;SDS011;27814;53.452;-6.180;2022-11-18T14:54:22;4.50;;;1.00;;
41815;SDS011;27814;53.452;-6.180;2022-11-18T14:56:53;4.70;;;0.90;;
41815;SDS011;27814;53.452;-6.180;2022-11-18T14:59:26;5.60;;;1.20;;
41815;SDS011;27814;53.452;-6.180;2022-11-18T15:01:54;5.03;;;1.23;;
41815;SDS011;27814;53.452;-6.180;2022-11-18T15:04:24;4.07;;;1.08;;
41815;SDS011;27814;53.452;-6.180;2022-11-18T15:06:52;4.22;;;1.00;;
41815;SDS011;27814;53.452;-6.180;2022-11-18T15:09:21;3.92;;;1.15;;
41815;SDS011;27814;53.452;-6.180;2022-11-18T15:11:50;3.27;;;0.90;;
41815;SDS011;27814;53.452;-6.180;2022-11-18T15:14:18;5.78;;;1.02;;
41815;SDS011;27814;53.452;-6.180;2022-11-18T15:16:48;7.15;;;1.40;;
41815;SDS011;27814;53.452;-6.180;2022-11-18T15:19:16;4.13;;;0.90;;
41815;SDS011;27814;53.452;-6.180;2022-11-18T15:21:45;4.97;;;1.00;;
41815;SDS011;27814;53.452;-6.180;2022-11-18T15:24:13;4.07;;;0.98;;
41815;SDS011;27814;53.452;-6.180;2022-11-18T15:26:43;4.43;;;1.00;;
41815;SDS011;27814;53.452;-6.180;2022-11-18T15:29:14;4.20;;;1.00;;
41815;SDS011;27814;53.452;-6.180;2022-11-18T15:31:44;5.13;;;1.27;;
41815;SDS011;27814;53.452;-6.180;2022-11-18T15:34:14;5.63;;;1.25;;
41815;SDS011;27814;53.452;-6.180;2022-11-18T15:36:46;5.55;;;1.42;;
41815;SDS011;27814;53.452;-6.180;2022-11-18T15:39:15;6.32;;;1.35;;
41815;SDS011;27814;53.452;-6.180;2022-11-18T15:41:43;3.97;;;1.15;;
41815;SDS011;27814;53.452;-6.180;2022-11-18T15:44:11;7.03;;;1.52;;